Appleton, Arkansas
Current Conditions -  °F | °C
As of 1:53 PM on Wednesday 26 Nov 2014 (Local Time) from KRUE Reporting Station
Clear Clear  
Wind Chill: 57°   Ceiling: Unl
Heat Index: 57°   Visibility: 10mi
Dew Point: 30°   Wind: 14mph
Humidity: 36%   Direction: 300°WNW
Pressure: 30.03"   Gusts: NA
Location:  35.2384°N, 92.9429°W
Report Text: KRUE 261953Z AUTO 30012KT 10SM CLR 14/M01 A3003 RMK AO2 SLP165 T01391011
Loading
Personal Weather Stations






























Interactive Weather Map New forecast layout! Learn more

10-Day Weather Forecast

Advertisements
Track Severe Weather on mobile